Página principal
METAR-TAF:

METAR-TAF

Aeroportos :

Aeroporto Internacional Rei Abdulaziz

Jidá, Arábia Saudita

latitude: 21-42N, longitude: 039-11E, altura: 15 m

Observação actual do tempo

O boletim foi feito há 32 minutos, às 11:00 UTC
Vento 10 kt de su-sudoeste
Temperatura 34°C
Humidade 47%
Pressão 1008 hPa
Visibilidade 10 km ou mais
Poucas nuvensa uma altura de 3500 ft

METAR: OEJN 181100Z 21010KT 9999 FEW035 34/21 Q1008 NOSIG

Hora: 14:32 (11:32 UTC)

Previsão

O boletim foi feito há 6 horas e 32 minutos, às 05:00 UTC
Previsão válida de 18 às 06 UTC a 19 às 12 UTC
Vento 14 kt de oeste
Visibilidade 10 km ou mais
Nuvens dispersasa uma altura de 4000 ft
Tornando-se
de 18 às 18 UTC a 18 às 20 UTC
Vento 3 kt com direcção variável

TAF: OEJN 180500Z 1806/1912 28014KT 9999 SCT040 BECMG 1818/1820 VRB03KT

Observações e previsões do tempo de mais de 4000 aeroportos (mensagens METAR e TAF).

As estações disponíveis são os pontos amarelos e vermelhos sobre o mapa.

Mova o rato sobre o mapa para ver o nome da estação.

Depois clique no ponto para visualizar as observações e previsões meteorológicas.

Para alterar o mapa : clique nos botões verdes com uma cruz preta para aumentar o zoom; no botão verde com uma pitada de zoom; ou nas setas verdes para mapas adjacentes.


METAR-TAF: